createdAt,value
2023-05-03T00:01:41.473Z,99801.50
2023-05-03T00:04:09.831Z,99801.50
2023-05-03T00:06:38.295Z,99798.72
2023-05-03T00:09:06.807Z,99794.31
2023-05-03T00:11:35.714Z,99802.34
2023-05-03T00:14:04.176Z,99806.25
2023-05-03T00:16:32.597Z,99811.78
2023-05-03T00:19:02.306Z,99810.66
2023-05-03T00:21:31.763Z,99805.63
2023-05-03T00:24:00.106Z,99818.41
2023-05-03T00:26:29.674Z,99804.53
2023-05-03T00:28:57.929Z,99800.66
2023-05-03T00:31:26.252Z,99792.34
2023-05-03T00:33:54.633Z,99806.22
2023-05-03T00:36:24.324Z,99799.00
2023-05-03T00:38:52.590Z,99795.38
2023-05-03T00:41:21.235Z,99795.91
2023-05-03T00:43:49.545Z,99796.22
2023-05-03T00:46:18.144Z,99796.22
2023-05-03T00:48:47.601Z,99786.25
2023-05-03T00:51:18.678Z,99796.53
2023-05-03T00:53:48.394Z,99793.19
2023-05-03T00:56:22.961Z,99794.03
2023-05-03T00:58:53.122Z,99787.94
2023-05-03T01:01:22.067Z,99793.19
2023-05-03T01:03:50.854Z,99795.97
2023-05-03T01:06:32.298Z,99789.63
2023-05-03T01:09:10.507Z,99780.78
2023-05-03T01:11:48.904Z,99792.13
2023-05-03T01:14:28.009Z,99788.00
2023-05-03T01:17:05.547Z,99794.38
2023-05-03T01:19:38.925Z,99793.53
2023-05-03T01:22:23.654Z,99799.38
2023-05-03T01:25:02.664Z,99796.59
2023-05-03T01:27:30.996Z,99793.00
2023-05-03T01:29:59.396Z,99790.75
2023-05-03T01:32:37.628Z,99793.53
2023-05-03T01:35:13.817Z,99796.03
2023-05-03T01:37:43.470Z,99791.84
2023-05-03T01:40:16.918Z,99792.97
2023-05-03T01:42:45.597Z,99802.66
2023-05-03T01:45:14.375Z,99794.31
2023-05-03T01:47:42.869Z,99800.41
2023-05-03T01:50:11.908Z,99799.56
2023-05-03T01:52:40.174Z,99790.41
2023-05-03T01:55:09.472Z,99792.66
2023-05-03T01:57:39.185Z,99787.41
2023-05-03T02:00:10.559Z,99793.25
2023-05-03T02:02:38.909Z,99786.88
2023-05-03T02:05:08.412Z,99796.31
2023-05-03T02:07:36.750Z,99794.66
2023-05-03T02:10:06.263Z,99796.59
2023-05-03T02:12:34.966Z,99806.84
2023-05-03T02:15:05.305Z,99799.69
2023-05-03T02:17:34.223Z,99805.22
2023-05-03T02:20:02.731Z,99801.63
2023-05-03T02:22:31.224Z,99803.56
2023-05-03T02:25:00.007Z,99801.63
2023-05-03T02:27:28.360Z,99796.06
2023-05-03T02:29:56.651Z,99801.09
2023-05-03T02:32:26.384Z,99802.19
2023-05-03T02:34:55.375Z,99806.09
2023-05-03T02:37:23.810Z,99805.78
2023-05-03T02:39:52.069Z,99800.25
2023-05-03T02:42:20.409Z,99802.72
2023-05-03T02:44:48.895Z,99800.78
2023-05-03T02:47:17.257Z,99796.06
2023-05-03T02:49:48.269Z,99788.88
2023-05-03T02:52:16.565Z,99795.78
2023-05-03T02:54:46.503Z,99795.78
2023-05-03T02:57:14.850Z,99801.03
2023-05-03T02:59:43.187Z,99795.50
2023-05-03T03:02:11.527Z,99792.44
2023-05-03T03:04:39.849Z,99791.59
2023-05-03T03:07:09.558Z,99794.06
2023-05-03T03:09:37.875Z,99794.91
2023-05-03T03:12:06.786Z,99786.31
2023-05-03T03:14:35.168Z,99796.25
2023-05-03T03:17:03.809Z,99787.66
2023-05-03T03:19:32.329Z,99797.31
2023-05-03T03:22:00.710Z,99797.31
2023-05-03T03:24:30.493Z,99790.97
2023-05-03T03:26:58.938Z,99796.53
2023-05-03T03:29:28.038Z,99798.72
2023-05-03T03:31:56.501Z,99809.81
2023-05-03T03:34:24.961Z,99810.97
2023-05-03T03:36:53.522Z,99810.97
2023-05-03T03:39:21.925Z,99814.03
2023-05-03T03:41:51.886Z,99812.91
2023-05-03T03:44:20.365Z,99815.38
2023-05-03T03:46:48.861Z,99818.69
2023-05-03T03:49:17.241Z,99823.41
2023-05-03T03:51:45.703Z,99825.88
2023-05-03T03:54:14.050Z,99829.47
2023-05-03T03:56:42.322Z,99819.81
2023-05-03T03:59:12.072Z,99822.88
2023-05-03T04:01:40.516Z,99827.59
2023-05-03T04:04:09.010Z,99832.59
2023-05-03T04:06:37.788Z,99825.69
2023-05-03T04:09:06.357Z,99827.09
2023-05-03T04:11:35.054Z,99834.88
2023-05-03T04:14:04.292Z,99830.44
2023-05-03T04:16:34.062Z,99830.72
2023-05-03T04:19:03.703Z,99834.59
2023-05-03T04:21:32.387Z,99840.72
2023-05-03T04:24:02.121Z,99842.66
2023-05-03T04:26:31.755Z,99845.94
2023-05-03T04:29:00.927Z,99843.19
2023-05-03T04:31:30.118Z,99842.88
2023-05-03T04:34:00.000Z,99849.50
2023-05-03T04:36:30.012Z,99850.59
2023-05-03T04:38:58.483Z,99855.53
2023-05-03T04:41:26.940Z,99860.22
2023-05-03T04:43:55.479Z,99866.56
2023-05-03T04:46:23.849Z,99859.84
2023-05-03T04:48:52.410Z,99875.03
2023-05-03T04:51:22.153Z,99867.50
2023-05-03T04:53:50.570Z,99876.00
2023-05-03T04:56:20.576Z,99874.56
2023-05-03T04:58:49.007Z,99868.34
2023-05-03T05:01:17.323Z,99878.03
2023-05-03T05:03:45.816Z,99881.28
2023-05-03T05:06:14.286Z,99883.19
2023-05-03T05:08:43.995Z,99886.44
2023-05-03T05:11:14.633Z,99897.72
2023-05-03T05:13:43.027Z,99897.34
2023-05-03T05:16:11.337Z,99893.41
2023-05-03T05:18:39.679Z,99892.22
2023-05-03T05:21:08.038Z,99901.31
2023-05-03T05:23:36.372Z,99898.75
2023-05-03T05:26:06.307Z,99893.53
2023-05-03T05:28:34.850Z,99901.53
2023-05-03T05:31:03.357Z,99901.84
2023-05-03T05:33:31.766Z,99894.63
2023-05-03T05:36:00.539Z,99908.00
2023-05-03T05:38:29.017Z,99903.53
2023-05-03T05:40:57.381Z,99904.69
2023-05-03T05:43:27.128Z,99911.88
2023-05-03T05:45:55.628Z,99906.03
2023-05-03T05:48:24.037Z,99917.69
2023-05-03T05:50:52.449Z,99921.22
2023-05-03T05:53:20.826Z,99918.38
2023-05-03T05:55:49.152Z,99921.69
2023-05-03T05:58:17.811Z,99932.44
2023-05-03T06:00:49.373Z,99928.78
2023-05-03T06:03:18.265Z,99932.81
2023-05-03T06:05:46.709Z,99943.00
2023-05-03T06:08:15.041Z,99930.03
2023-05-03T06:10:44.098Z,99932.91
2023-05-03T06:13:12.450Z,99932.19
2023-05-03T06:15:41.669Z,99936.97
2023-05-03T06:18:11.510Z,99936.44
2023-05-03T06:20:40.124Z,99933.94
2023-05-03T06:23:08.491Z,99937.28
2023-05-03T06:25:37.229Z,99937.84
2023-05-03T06:28:05.964Z,99943.38
2023-05-03T06:30:35.261Z,99936.13
2023-05-03T06:33:04.265Z,99939.78
2023-05-03T06:35:34.490Z,99937.00
2023-05-03T06:38:02.859Z,99947.22
2023-05-03T06:40:31.280Z,99941.44
2023-05-03T06:42:59.630Z,99943.69
2023-05-03T06:45:28.013Z,99943.16
2023-05-03T06:47:56.520Z,99948.81
2023-05-03T06:50:24.945Z,99946.00
2023-05-03T06:52:55.500Z,99936.41
2023-05-03T06:55:23.925Z,99942.66
2023-05-03T06:57:52.514Z,99936.97
2023-05-03T07:00:23.125Z,99948.75
2023-05-03T07:02:51.548Z,99953.69
2023-05-03T07:05:20.199Z,99939.75
2023-05-03T07:07:48.534Z,99949.78
2023-05-03T07:10:18.342Z,99935.94
2023-05-03T07:12:46.769Z,99953.00
2023-05-03T07:15:15.729Z,99947.94
2023-05-03T07:17:44.187Z,99946.06
2023-05-03T07:20:14.002Z,99944.34
2023-05-03T07:22:42.416Z,99940.94
2023-05-03T07:25:12.421Z,99951.78
2023-05-03T07:27:42.399Z,99945.19
2023-05-03T07:30:11.870Z,99940.09
2023-05-03T07:32:40.573Z,99938.59
2023-05-03T07:35:11.045Z,99937.63
2023-05-03T07:37:39.820Z,99949.13
2023-05-03T07:40:10.243Z,99945.00
2023-05-03T07:42:38.618Z,99948.28
2023-05-03T07:45:10.575Z,99952.75
2023-05-03T07:47:40.124Z,99945.50
2023-05-03T07:50:09.621Z,99952.75
2023-05-03T07:52:38.851Z,99957.88
2023-05-03T07:55:09.462Z,99950.28
2023-05-03T07:57:37.918Z,99943.03
2023-05-03T08:00:12.477Z,99943.19
2023-05-03T08:02:41.220Z,99949.22
2023-05-03T08:05:11.531Z,99953.22
2023-05-03T08:07:40.089Z,99956.69
2023-05-03T08:10:09.754Z,99962.09
2023-05-03T08:12:38.456Z,99951.38
2023-05-03T08:15:11.565Z,99956.75
2023-05-03T08:17:44.395Z,99951.88
2023-05-03T08:20:15.667Z,99951.75
2023-05-03T08:22:45.224Z,99955.72
2023-05-03T08:25:13.739Z,99954.91
2023-05-03T08:27:42.148Z,99958.06
2023-05-03T08:30:12.785Z,99946.78
2023-05-03T08:32:41.245Z,99949.47
2023-05-03T08:35:11.022Z,99951.16
2023-05-03T08:37:41.033Z,99951.31
2023-05-03T08:40:12.114Z,99954.00
2023-05-03T08:42:42.326Z,99942.34
2023-05-03T08:45:15.947Z,99951.09
2023-05-03T08:47:45.837Z,99955.56
2023-05-03T08:50:16.150Z,99961.31
2023-05-03T08:52:45.752Z,99948.84
2023-05-03T08:55:14.566Z,99959.19
2023-05-03T08:57:43.016Z,99961.34
2023-05-03T09:00:15.827Z,99957.25
2023-05-03T09:02:44.347Z,99948.00
2023-05-03T09:05:35.936Z,99954.09
2023-05-03T09:08:06.378Z,99972.41
2023-05-03T09:10:38.290Z,99963.66
2023-05-03T09:13:07.597Z,99963.13
2023-05-03T09:15:38.119Z,99959.34
2023-05-03T09:18:12.564Z,99955.06
2023-05-03T09:20:51.460Z,99950.13
2023-05-03T09:23:29.800Z,99946.03
2023-05-03T09:25:59.110Z,99961.22
2023-05-03T09:28:27.954Z,99952.19
2023-05-03T09:31:11.372Z,99949.41
2023-05-03T09:33:40.826Z,99945.06
2023-05-03T09:36:11.041Z,99941.06
2023-05-03T09:38:39.509Z,99940.41
2023-05-03T09:41:07.978Z,99937.75
2023-05-03T09:43:36.877Z,99935.06
2023-05-03T09:46:14.196Z,99942.63
2023-05-03T09:48:43.453Z,99929.25
2023-05-03T09:51:13.040Z,99928.59
2023-05-03T09:53:42.677Z,99918.50
2023-05-03T09:56:13.736Z,99915.69
2023-05-03T09:58:43.715Z,99931.69
2023-05-03T10:01:16.263Z,99922.50
2023-05-03T10:03:47.555Z,99914.44
2023-05-03T10:06:36.864Z,99909.84
2023-05-03T10:09:14.451Z,99906.06
2023-05-03T10:11:49.301Z,99909.53
2023-05-03T10:14:18.350Z,99898.03
2023-05-03T10:16:53.978Z,99906.13
2023-05-03T10:19:28.803Z,99900.03
2023-05-03T10:22:05.085Z,99895.56
2023-05-03T10:24:34.661Z,99907.88
2023-05-03T10:27:03.572Z,99902.16
2023-05-03T10:29:52.351Z,99888.91
2023-05-03T10:32:33.561Z,99889.88
2023-05-03T10:35:06.207Z,99891.00
2023-05-03T10:37:36.281Z,99874.28
2023-05-03T10:40:13.833Z,99887.47
2023-05-03T10:42:50.944Z,99884.41
2023-05-03T10:45:26.428Z,99878.13
2023-05-03T10:48:20.888Z,99885.22
2023-05-03T10:50:50.285Z,99885.69
2023-05-03T10:53:40.114Z,99865.81
2023-05-03T10:56:11.059Z,99879.03
2023-05-03T10:58:47.659Z,99894.69
2023-05-03T11:01:18.673Z,99885.72
2023-05-03T11:03:53.602Z,99884.13
2023-05-03T11:06:36.658Z,99889.50
2023-05-03T11:09:07.686Z,99891.53
2023-05-03T11:11:39.313Z,99874.66
2023-05-03T11:14:08.918Z,99878.28
2023-05-03T11:16:40.610Z,99882.16
2023-05-03T11:19:10.473Z,99876.50
2023-05-03T11:21:38.882Z,99871.84
2023-05-03T11:24:08.285Z,99862.88
2023-05-03T11:26:39.776Z,99863.91
2023-05-03T11:29:10.853Z,99867.53
2023-05-03T11:31:43.078Z,99872.63
2023-05-03T11:34:14.597Z,99868.81
2023-05-03T11:36:43.333Z,99875.03
2023-05-03T11:39:14.492Z,99869.75
2023-05-03T11:41:44.218Z,99878.31
2023-05-03T11:44:17.567Z,99875.06
2023-05-03T11:46:48.086Z,99885.41
2023-05-03T11:49:20.758Z,99879.75
2023-05-03T11:51:52.670Z,99879.38
2023-05-03T11:54:26.983Z,99883.25
2023-05-03T11:56:59.374Z,99882.78
2023-05-03T11:59:40.464Z,99868.16
2023-05-03T12:02:11.113Z,99879.06
2023-05-03T12:04:43.615Z,99880.38
2023-05-03T12:07:15.426Z,99875.56
2023-05-03T12:09:52.509Z,99875.50
2023-05-03T12:12:32.841Z,99875.47
2023-05-03T12:15:07.875Z,99874.75
2023-05-03T12:17:44.602Z,99876.97
2023-05-03T12:22:57.633Z,99878.28
2023-05-03T12:25:29.146Z,99876.53
2023-05-03T12:28:17.785Z,99871.00
2023-05-03T12:30:48.665Z,99880.69
2023-05-03T12:33:21.705Z,99881.47
2023-05-03T12:35:54.149Z,99880.38
2023-05-03T12:38:24.777Z,99881.25
2023-05-03T12:40:54.943Z,99880.28
2023-05-03T12:43:23.694Z,99881.84
2023-05-03T12:46:07.558Z,99884.00
2023-05-03T12:48:40.721Z,99884.81
2023-05-03T12:53:44.717Z,99888.66
2023-05-03T12:56:15.772Z,99883.63
2023-05-03T12:59:07.632Z,99878.38
2023-05-03T13:02:41.081Z,99885.00
2023-05-03T13:07:00.281Z,99882.38
2023-05-03T13:09:38.511Z,99881.19
2023-05-03T13:12:20.479Z,99879.22
2023-05-03T13:14:49.836Z,99878.22
2023-05-03T13:17:20.482Z,99879.41
2023-05-03T13:19:49.437Z,99871.31
2023-05-03T13:22:19.749Z,99871.31
2023-05-03T13:24:49.086Z,99869.00
2023-05-03T13:27:18.982Z,99875.91
2023-05-03T13:29:49.366Z,99870.50
2023-05-03T13:32:19.843Z,99869.34
2023-05-03T13:34:48.198Z,99868.19
2023-05-03T13:37:19.374Z,99866.72
2023-05-03T13:39:47.957Z,99866.88
2023-05-03T13:42:16.379Z,99866.22
2023-05-03T13:44:47.801Z,99857.50
2023-05-03T13:47:16.455Z,99857.97
2023-05-03T13:49:44.825Z,99858.16
2023-05-03T13:52:13.302Z,99862.78
2023-05-03T13:54:43.494Z,99859.31
2023-05-03T13:57:11.903Z,99860.78
2023-05-03T13:59:40.372Z,99859.78
2023-05-03T14:02:09.028Z,99856.03
2023-05-03T14:04:37.536Z,99852.09
2023-05-03T14:07:06.149Z,99848.47
2023-05-03T14:09:39.340Z,99842.88
2023-05-03T14:12:09.742Z,99845.66
2023-05-03T14:14:38.203Z,99844.50
2023-05-03T14:17:06.811Z,99848.94
2023-05-03T14:19:37.379Z,99845.66
2023-05-03T14:22:05.784Z,99839.72
2023-05-03T14:24:34.235Z,99841.38
2023-05-03T14:27:03.136Z,99855.03
2023-05-03T14:29:33.154Z,99843.84
2023-05-03T14:32:01.605Z,99846.63
2023-05-03T14:34:30.037Z,99851.88
2023-05-03T14:36:58.755Z,99850.25
2023-05-03T14:39:27.377Z,99845.81
2023-05-03T14:41:56.468Z,99844.19
2023-05-03T14:44:25.254Z,99843.69
2023-05-03T14:46:58.786Z,99844.00
2023-05-03T14:49:27.252Z,99849.94
2023-05-03T14:51:55.717Z,99843.66
2023-05-03T14:54:24.167Z,99846.94
2023-05-03T14:56:52.535Z,99853.53
2023-05-03T14:59:20.956Z,99846.63
2023-05-03T15:01:49.280Z,99859.78
2023-05-03T15:04:19.040Z,99855.84
2023-05-03T15:06:47.682Z,99853.06
2023-05-03T15:09:16.096Z,99851.41
2023-05-03T15:11:45.589Z,99854.03
2023-05-03T15:14:14.009Z,99857.19
2023-05-03T15:16:42.538Z,99855.19
2023-05-03T15:19:10.974Z,99857.97
2023-05-03T15:21:52.795Z,99862.59
2023-05-03T15:24:21.949Z,99866.22
2023-05-03T15:26:51.499Z,99860.63
2023-05-03T15:29:19.898Z,99866.38
2023-05-03T15:31:48.231Z,99865.72
2023-05-03T15:34:16.579Z,99862.59
2023-05-03T15:36:44.946Z,99869.84
2023-05-03T15:39:14.838Z,99873.28
2023-05-03T15:41:45.555Z,99861.13
2023-05-03T15:44:15.043Z,99869.66
2023-05-03T15:46:44.324Z,99869.81
2023-05-03T15:49:13.047Z,99871.66
2023-05-03T15:51:41.417Z,99870.66
2023-05-03T15:54:09.762Z,99865.41
2023-05-03T15:56:40.221Z,99865.72
2023-05-03T15:59:08.774Z,99871.66
2023-05-03T16:01:37.904Z,99873.13
2023-05-03T16:04:07.714Z,99869.50
2023-05-03T16:06:36.156Z,99865.38
2023-05-03T16:09:06.531Z,99866.06
2023-05-03T16:11:35.801Z,99863.56
2023-05-03T16:14:09.340Z,99863.91
2023-05-03T16:16:38.996Z,99869.97
2023-05-03T16:19:08.863Z,99866.06
2023-05-03T16:21:37.308Z,99871.13
2023-05-03T16:24:06.407Z,99867.84
2023-05-03T16:26:36.411Z,99865.72
2023-05-03T16:29:06.166Z,99866.03
2023-05-03T16:31:34.783Z,99867.69
2023-05-03T16:34:03.796Z,99865.72
2023-05-03T16:36:32.787Z,99864.06
2023-05-03T16:39:01.225Z,99857.63
2023-05-03T16:41:29.573Z,99867.50
2023-05-03T16:43:57.913Z,99865.69
2023-05-03T16:46:27.690Z,99873.03
2023-05-03T16:48:56.178Z,99867.09
2023-05-03T16:51:24.570Z,99862.00
2023-05-03T16:53:53.464Z,99863.31
2023-05-03T16:56:22.936Z,99864.59
2023-05-03T16:58:51.856Z,99861.94
2023-05-03T17:01:20.480Z,99865.19
2023-05-03T17:03:50.354Z,99869.31
2023-05-03T17:06:18.916Z,99874.19
2023-05-03T17:08:47.427Z,99877.47
2023-05-03T17:11:16.166Z,99876.78
2023-05-03T17:13:44.613Z,99879.72
2023-05-03T17:16:15.607Z,99885.94
2023-05-03T17:18:44.391Z,99886.88
2023-05-03T17:21:14.160Z,99880.28
2023-05-03T17:23:42.861Z,99890.44
2023-05-03T17:26:13.175Z,99888.28
2023-05-03T17:28:42.229Z,99896.47
2023-05-03T17:31:10.981Z,99893.50
2023-05-03T17:33:39.329Z,99901.69
2023-05-03T17:36:08.540Z,99895.41
2023-05-03T17:38:38.253Z,99899.16
2023-05-03T17:41:08.770Z,99893.19
2023-05-03T17:43:38.243Z,99895.28
2023-05-03T17:46:11.320Z,99899.69
2023-05-03T17:48:42.714Z,99898.13
2023-05-03T17:51:12.802Z,99902.00
2023-05-03T17:53:43.566Z,99900.78
2023-05-03T17:56:16.130Z,99902.66
2023-05-03T17:58:47.347Z,99903.38
2023-05-03T18:01:16.596Z,99907.72
2023-05-03T18:03:45.225Z,99907.34
2023-05-03T18:06:14.866Z,99911.38
2023-05-03T18:08:44.721Z,99909.34
2023-05-03T18:11:13.182Z,99916.47
2023-05-03T18:13:41.934Z,99915.22
2023-05-03T18:16:11.479Z,99919.88
2023-05-03T18:18:40.246Z,99912.50
2023-05-03T18:21:11.740Z,99913.03
2023-05-03T18:23:41.169Z,99922.41
2023-05-03T18:26:12.116Z,99920.44
2023-05-03T18:28:40.950Z,99921.44
2023-05-03T18:31:11.244Z,99926.38
2023-05-03T18:33:42.644Z,99929.03
2023-05-03T18:36:13.957Z,99940.34
2023-05-03T18:38:43.432Z,99936.88
2023-05-03T18:41:16.051Z,99940.34
2023-05-03T18:43:46.695Z,99936.59
2023-05-03T18:46:21.251Z,99940.34
2023-05-03T18:48:51.095Z,99952.69
2023-05-03T18:51:21.203Z,99953.88
2023-05-03T18:53:51.027Z,99955.38
2023-05-03T18:56:21.345Z,99955.22
2023-05-03T18:58:50.427Z,99958.88
2023-05-03T19:01:20.280Z,99964.81
2023-05-03T19:03:49.162Z,99976.00
2023-05-03T19:06:18.451Z,99969.69
2023-05-03T19:08:47.498Z,99969.22
2023-05-03T19:11:21.922Z,99960.91
2023-05-03T19:13:52.593Z,99972.09
2023-05-03T19:16:22.912Z,99972.13
2023-05-03T19:18:51.409Z,99972.75
2023-05-03T19:21:20.786Z,99973.63
2023-05-03T19:23:50.015Z,99976.47
2023-05-03T19:26:19.206Z,99972.63
2023-05-03T19:28:48.175Z,99976.28
2023-05-03T19:31:20.859Z,99979.13
2023-05-03T19:33:51.947Z,99982.47
2023-05-03T19:36:20.712Z,99976.69
2023-05-03T19:38:51.538Z,99980.88
2023-05-03T19:41:21.513Z,99979.00
2023-05-03T19:43:53.005Z,99987.91
2023-05-03T19:46:25.160Z,99983.22
2023-05-03T19:48:54.524Z,99981.84
2023-05-03T19:51:24.017Z,99984.41
2023-05-03T19:53:53.293Z,99995.25
2023-05-03T19:56:22.542Z,99987.78
2023-05-03T19:58:51.808Z,99989.19
2023-05-03T20:01:22.568Z,99998.41
2023-05-03T20:03:54.204Z,99990.66
2023-05-03T20:06:23.349Z,99988.47
2023-05-03T20:08:52.414Z,99987.38
2023-05-03T20:11:22.111Z,99987.94
2023-05-03T20:13:51.149Z,99990.44
2023-05-03T20:16:21.867Z,99994.63
2023-05-03T20:18:52.833Z,99992.72
2023-05-03T20:21:21.654Z,99982.22
2023-05-03T20:23:50.612Z,99981.69
2023-05-03T20:26:19.291Z,99985.88
2023-05-03T20:28:47.675Z,99983.66
2023-05-03T20:31:17.289Z,99981.19
2023-05-03T20:33:46.052Z,99985.38
2023-05-03T20:36:15.764Z,99981.22
2023-05-03T20:38:44.295Z,99985.41
2023-05-03T20:41:12.680Z,99992.34
2023-05-03T20:43:41.337Z,99990.97
2023-05-03T20:46:09.721Z,99991.53
2023-05-03T20:48:38.310Z,99994.06
2023-05-03T20:51:09.568Z,99990.22
2023-05-03T20:53:39.438Z,99989.16
2023-05-03T20:56:08.073Z,99990.81
2023-05-03T20:58:36.653Z,99986.13
2023-05-03T21:01:06.616Z,99981.19
2023-05-03T21:03:35.817Z,99989.22
2023-05-03T21:06:05.589Z,99982.88
2023-05-03T21:08:34.106Z,99987.06
2023-05-03T21:11:04.219Z,99986.50
2023-05-03T21:13:35.650Z,99990.69
2023-05-03T21:16:04.390Z,99989.31
2023-05-03T21:18:33.239Z,99999.56
2023-05-03T21:21:01.724Z,100003.16
2023-05-03T21:23:30.127Z,100005.09
2023-05-03T21:25:58.538Z,99997.91
2023-05-03T21:28:30.467Z,99999.28
2023-05-03T21:30:59.958Z,99994.34
2023-05-03T21:33:28.745Z,100003.72
2023-05-03T21:35:57.193Z,99995.16
2023-05-03T21:38:25.676Z,99997.66
2023-05-03T21:40:54.021Z,99994.63
2023-05-03T21:43:22.402Z,99999.91
2023-05-03T21:45:52.528Z,100001.28
2023-05-03T21:48:23.519Z,99999.09
2023-05-03T21:50:51.954Z,99998.81
2023-05-03T21:53:20.760Z,99997.75
2023-05-03T21:55:49.196Z,99995.81
2023-05-03T21:58:17.634Z,99994.72
2023-05-03T22:00:46.088Z,99998.88
2023-05-03T22:03:16.093Z,99998.59
2023-05-03T22:05:47.852Z,99998.34
2023-05-03T22:08:18.186Z,99991.72
2023-05-03T22:10:46.775Z,99996.69
2023-05-03T22:13:15.289Z,99993.66
2023-05-03T22:15:43.802Z,99996.97
2023-05-03T22:18:12.215Z,99999.50
2023-05-03T22:20:42.352Z,100000.88
2023-05-03T22:23:10.846Z,100005.31
2023-05-03T22:25:39.250Z,99994.81
2023-05-03T22:28:07.583Z,99998.97
2023-05-03T22:30:35.936Z,99998.13
2023-05-03T22:33:04.443Z,99994.81
2023-05-03T22:35:32.982Z,99997.03
2023-05-03T22:38:03.726Z,99995.34
2023-05-03T22:40:32.252Z,99990.41
2023-05-03T22:43:00.821Z,100000.91
2023-05-03T22:45:29.270Z,99996.78
2023-05-03T22:47:57.827Z,99990.69
2023-05-03T22:50:26.398Z,99986.53
2023-05-03T22:52:54.828Z,99985.16
2023-05-03T22:55:24.570Z,99980.16
2023-05-03T22:57:52.872Z,99987.09
2023-05-03T23:00:22.539Z,99985.97
2023-05-03T23:02:51.009Z,99982.66
2023-05-03T23:05:19.655Z,99982.34
2023-05-03T23:07:48.066Z,99982.94
2023-05-03T23:10:16.647Z,99980.69
2023-05-03T23:12:46.441Z,99985.97
2023-05-03T23:15:15.111Z,99987.34
2023-05-03T23:17:43.448Z,99979.59
2023-05-03T23:20:15.709Z,99980.16
2023-05-03T23:22:44.099Z,99983.75
2023-05-03T23:25:12.473Z,99983.19
2023-05-03T23:27:40.831Z,99983.19
2023-05-03T23:30:12.435Z,99992.59
2023-05-03T23:32:41.618Z,99999.50
2023-05-03T23:35:10.829Z,99991.22
2023-05-03T23:37:39.116Z,99986.22
2023-05-03T23:40:10.763Z,99984.31
2023-05-03T23:42:39.700Z,99987.09
2023-05-03T23:45:11.413Z,99975.72
2023-05-03T23:47:39.796Z,99982.09
2023-05-03T23:50:10.348Z,99981.25
2023-05-03T23:52:38.920Z,99978.75
2023-05-03T23:55:09.130Z,99976.22
2023-05-03T23:57:37.541Z,99975.66
